Data for 05/13/2013

Time Sea-Level Adjusted Pressure Absolute Pressure Temperature Relative Humidity Dew Point   
(mb) (inHg) (mb) (inHg) (C) (F) (%) (C) (F)
00:05 1019 30.09 849 25.07 17 62.6 33 0.8 33.5
00:10 1019 30.09 849 25.07 17.2 62.9 33 0.8 33.4
00:15 1019 30.09 849 25.07 17.1 62.7 33 0.8 33.5
00:20 1020 30.12 849 25.07 17 62.6 33 0.8 33.4
00:25 1020 30.12 849 25.07 16.8 62.2 34 0.9 33.7
00:30 1020 30.12 849 25.07 16.4 61.5 35 1 33.8
00:35 1020 30.12 849 25.07 16.2 61.2 35 1 33.7
00:40 1020 30.12 849 25.07 16.2 61.2 35 0.9 33.6
00:45 1020 30.12 849 25.07 16.3 61.3 35 1 33.8
00:50 1020 30.12 849 25.07 16.4 61.5 34 0.4 32.7
00:55 1020 30.12 849 25.07 16.8 62.2 32 0.3 32.6
01:00 1019 30.09 849 25.07 17 62.6 32 0.4 32.8
01:05 1019 30.09 849 25.07 17.3 63.1 30 -0.1 31.8
01:10 1019 30.09 849 25.07 17.8 64.1 30 0 32
01:15 1019 30.09 849 25.07 17.5 63.4 33 1 33.8
01:20 1019 30.09 849 25.07 16.9 62.5 33 0.6 33.1
01:25 1019 30.09 849 25.07 16.7 62.1 34 0.9 33.6
01:30 1019 30.09 849 25.07 16.2 61.2 36 1.3 34.3
01:35 1019 30.09 848 25.04 15.6 60.1 40 2.3 36.2
01:40 1019 30.09 849 25.07 14.6 58.2 41 1.7 35
01:45 1019 30.09 849 25.07 14.9 58.8 39 1.1 34
01:50 1019 30.09 849 25.07 15.4 59.7 39 1.4 34.6
01:55 1019 30.09 849 25.07 15.3 59.5 38 1.2 34.1
02:00 1019 30.09 849 25.07 15.2 59.3 38 1.2 34.2
02:05 1019 30.09 849 25.07 15.4 59.6 37 0.9 33.6
02:10 1019 30.09 849 25.07 15.5 60 37 0.9 33.6
02:15 1019 30.09 849 25.07 15.5 59.8 38 1.2 34.1
02:20 1019 30.09 849 25.07 15.3 59.5 38 1.3 34.3
02:25 1019 30.09 849 25.07 15.1 59.2 39 1.3 34.3
02:30 1019 30.09 849 25.07 15.1 59.1 42 2.4 36.4
02:35 1019 30.09 849 25.07 15.2 59.3 39 1.4 34.5
02:40 1019 30.09 849 25.07 15 58.9 40 1.6 35
02:45 1019 30.09 849 25.07 14.6 58.3 40 1.4 34.5
02:50 1019 30.09 849 25.07 14.7 58.4 41 1.7 35.1
02:55 1019 30.09 849 25.07 14.3 57.8 44 2.3 36.2
03:00 1019 30.09 849 25.07 14.1 57.4 45 2.6 36.6
03:05 1019 30.09 849 25.07 13.9 57 44 1.8 35.2
03:10 1019 30.09 849 25.07 13.5 56.3 46 2.3 36.1
03:15 1019 30.09 849 25.07 12.7 54.8 47 1.9 35.3
03:20 1019 30.09 849 25.07 12.6 54.6 48 1.8 35.3
03:25 1019 30.09 849 25.07 12.6 54.6 47 1.7 35.1
03:30 1019 30.09 849 25.07 12.7 54.8 47 1.7 35.1
03:35 1019 30.09 849 25.07 13 55.4 45 1.4 34.6
03:40 1019 30.09 848 25.04 13.1 55.6 46 1.8 35.2
03:45 1019 30.09 848 25.04 13.3 55.9 45 1.7 35.1
03:50 1019 30.09 848 25.04 13.3 56 45 1.9 35.3
03:55 1019 30.09 848 25.04 13.3 55.9 45 1.7 35.1
04:00 1019 30.09 848 25.04 13.2 55.7 45 1.7 35
04:05 1019 30.09 848 25.04 13.2 55.7 45 1.6 34.8
04:10 1019 30.09 848 25.04 13.2 55.7 47 2.1 35.8
04:15 1019 30.09 848 25.04 13.2 55.7 45 1.6 34.8
04:20 1019 30.09 848 25.04 13.3 55.9 44 1.4 34.4
04:25 1019 30.09 848 25.04 13.2 55.7 45 1.6 35
04:30 1019 30.09 848 25.04 12.9 55.2 46 1.8 35.2
04:35 1019 30.09 848 25.04 12.6 54.6 47 1.6 34.9
04:40 1019 30.09 848 25.04 12.6 54.7 47 1.5 34.8
04:45 1019 30.09 848 25.04 12.7 54.8 47 1.8 35.3
04:50 1019 30.09 848 25.04 12.6 54.8 49 2.2 36
04:55 1019 30.09 848 25.04 12.2 54 50 2.2 36
05:00 1019 30.09 848 25.04 12.2 53.9 49 1.9 35.4
05:05 1019 30.09 848 25.04 12.3 54.2 48 1.7 35
05:10 1019 30.09 848 25.04 12.9 55.2 46 1.6 34.9
05:15 1019 30.09 848 25.04 12.9 55.3 46 1.8 35.2
05:20 1019 30.09 848 25.04 12.8 55.1 45 1.4 34.6
05:25 1019 30.09 848 25.04 13.1 55.5 46 1.7 35
05:30 1019 30.09 848 25.04 13.2 55.8 45 1.6 34.9
05:35 1019 30.09 849 25.07 13.1 55.5 45 1.5 34.7
05:40 1019 30.09 849 25.07 13.2 55.7 45 1.5 34.6
05:45 1019 30.09 849 25.07 13.4 56.1 44 1.4 34.6
05:50 1019 30.09 849 25.07 13.5 56.2 43 1.3 34.3
05:55 1019 30.09 849 25.07 13.8 56.9 41 0.9 33.6
06:00 1019 30.09 849 25.07 14.3 57.7 39 0.7 33.3
06:05 1020 30.12 849 25.07 14.6 58.3 37 0.4 32.6
06:10 1019 30.09 849 25.07 14.9 58.9 38 0.7 33.2
06:15 1020 30.12 849 25.07 15 59 37 0.5 32.8
06:20 1020 30.12 849 25.07 14.9 58.8 38 1 33.7
06:25 1020 30.12 849 25.07 14.9 58.7 39 1.1 33.9
06:30 1020 30.12 849 25.07 15.1 59.2 39 1.3 34.3
06:35 1020 30.12 849 25.07 15.1 59.2 39 1.3 34.3
06:40 1020 30.12 849 25.07 14.9 58.8 39 1.1 33.9
06:45 1020 30.12 849 25.07 14.6 58.4 42 1.8 35.3
06:50 1020 30.12 849 25.07 14.5 58.2 41 1.6 34.9
06:55 1020 30.12 849 25.07 14.5 58.1 43 2.2 35.9
07:00 1020 30.12 849 25.07 14.8 58.6 41 1.7 35
07:05 1020 30.12 849 25.07 15.7 60.3 39 1.9 35.4
07:10 1020 30.12 849 25.07 16.8 62.2 36 1.7 35.1
07:15 1020 30.12 849 25.07 17.2 63 35 1.7 35.1
07:20 1020 30.12 849 25.07 18 64.4 34 1.9 35.5
07:25 1020 30.12 849 25.07 18.1 64.5 34 2.2 36
07:30 1020 30.12 849 25.07 18.6 65.5 31 1.4 34.5
07:35 1020 30.12 849 25.07 19.5 67 30 1.6 34.9
07:40 1020 30.12 849 25.07 19.6 67.4 29 1.4 34.5
07:45 1020 30.12 849 25.07 19.5 67 30 1.5 34.7
07:50 1020 30.12 849 25.07 19.4 66.8 31 1.8 35.2
07:55 1020 30.12 849 25.07 19.4 66.9 29 1.2 34.2
08:00 1020 30.12 849 25.07 20.1 68.2 29 1.6 34.8
08:05 1020 30.12 849 25.07 20.4 68.7 28 1.4 34.6
08:10 1020 30.12 849 25.07 20.8 69.4 28 1.6 34.9
08:15 1019 30.09 849 25.07 20.6 69.2 29 2 35.6
08:20 1019 30.09 849 25.07 20.7 69.2 29 2 35.5
08:25 1019 30.09 849 25.07 20.6 69.1 28 1.6 34.9
08:30 1019 30.09 849 25.07 21.3 70.4 27 1.8 35.3
08:35 1019 30.09 849 25.07 21.2 70.2 28 2.2 36
08:40 1019 30.09 849 25.07 20.8 69.4 28 1.7 35.1
08:45 1019 30.09 848 25.04 21.7 71.1 28 2.4 36.4
08:50 1019 30.09 848 25.04 21.8 71.2 27 2 35.6
08:55 1019 30.09 848 25.04 22.1 71.7 26 2 35.6
09:00 1019 30.09 848 25.04 21.7 71.1 27 1.9 35.5
09:05 1019 30.09 848 25.04 22.4 72.3 26 2.3 36.1
09:10 1019 30.09 848 25.04 23.1 73.6 24 1.9 35.3
09:15 1019 30.09 848 25.04 24 75.2 23 1.7 35
09:20 1019 30.09 848 25.04 24.5 76.2 23 2.1 35.8
09:25 1019 30.09 848 25.04 24.5 76.1 23 2.4 36.3
09:30 1019 30.09 848 25.04 24.3 75.7 22 1.4 34.5
09:35 1019 30.09 848 25.04 24.1 75.3 23 1.6 34.9
09:40 1019 30.09 848 25.04 24.8 76.6 21 1.1 34.1
09:45 1019 30.09 848 25.04 24.9 76.8 21 1.2 34.1
09:50 1019 30.09 848 25.04 24.9 76.8 20 0.6 33.1
09:55 1019 30.09 848 25.04 25.3 77.6 20 1 33.7
10:00 1018 30.06 848 25.04 25.3 77.5 20 0.6 33.1
10:05 1018 30.06 848 25.04 24.2 75.5 22 1.6 34.8
10:10 1018 30.06 848 25.04 24.8 76.6 21 1.1 34
10:15 1018 30.06 847 25.01 25.3 77.6 20 1.1 33.9
10:20 1018 30.06 847 25.01 25.5 78 19 0.7 33.3
10:25 1018 30.06 847 25.01 24.9 76.7 22 2 35.7
10:30 1018 30.06 847 25.01 25.2 77.4 20 1.1 33.9
10:35 1018 30.06 847 25.01 25 76.9 22 1.8 35.3
10:40 1018 30.06 847 25.01 25.1 77.1 20 1.1 33.9
10:45 1018 30.06 847 25.01 25.8 78.5 19 1 33.8
10:50 1018 30.06 847 25.01 25.9 78.6 20 1.6 34.9
10:55 1018 30.06 847 25.01 26.3 79.4 19 1 33.8
11:00 1018 30.06 847 25.01 26.9 80.5 19 1.7 35
11:05 1018 30.06 847 25.01 26.7 80 19 1.1 34
11:10 1018 30.06 847 25.01 27.4 81.3 18 0.9 33.7
11:15 1017 30.03 847 25.01 27.3 81.1 18 1 33.8
11:20 1017 30.03 846 24.98 26.9 80.5 18 0.7 33.2
11:25 1017 30.03 846 24.98 27 80.6 17 0.1 32.2
11:30 1017 30.03 846 24.98 26.4 79.5 18 0.1 32.2
11:35 1017 30.03 846 24.98 26.6 79.8 18 0.3 32.5
11:40 1017 30.03 846 24.98 27.1 80.8 16 -0.8 30.6
11:45 1017 30.03 846 24.98 27.4 81.3 17 0.2 32.4
11:50 1017 30.03 846 24.98 27.8 82 15 -0.8 30.5
11:55 1017 30.03 846 24.98 28.3 83 17 1.2 34.1
12:00 1016 30 846 24.98 27.6 81.6 16 0 32.1
12:05 1017 30.03 846 24.98 27.8 82.1 16 0.2 32.4
12:10 1016 30 846 24.98 27.4 81.4 17 0.9 33.6
12:15 1016 30 846 24.98 27.4 81.3 16 -0.1 31.7
12:20 1016 30 845 24.95 28.1 82.6 13 -2.5 27.4
12:25 1016 30 845 24.95 28.5 83.3 13 -2.6 27.3
12:30 1016 30 845 24.95 28.2 82.7 13 -2.1 28.2
12:35 1016 30 845 24.95 27.9 82.1 14 -2 28.5
12:40 1016 30 845 24.95 28.2 82.7 13 -2.5 27.5
12:45 1016 30 845 24.95 27.9 82.2 13 -2.7 27.1
12:50 1016 30 845 24.95 27.5 81.4 14 -2.2 28.1
12:55 1016 30 845 24.95 27.3 81.2 15 -1.6 29
13:00 1016 30 845 24.95 27.1 80.7 14 -2.1 28.2
13:05 1016 30 845 24.95 27.2 81 14 -2 28.4
13:10 1016 30 845 24.95 27.2 80.9 14 -2.4 27.6
13:15 1016 30 845 24.95 27.4 81.3 14 -2.1 28.3
13:20 1016 30 845 24.95 27.3 81.1 14 -2.5 27.4
13:25 1016 30 845 24.95 27.5 81.5 14 -2.4 27.7
13:30 1016 30 845 24.95 27.7 81.8 14 -2.1 28.2
13:35 1015 29.97 845 24.95 27.4 81.4 14 -2 28.5
13:40 1015 29.97 845 24.95 27.3 81.1 14 -2.2 28.1
13:45 1015 29.97 845 24.95 27.5 81.4 13 -2.7 27.1
13:50 1015 29.97 845 24.95 27.5 81.4 14 -2 28.4
13:55 1015 29.97 845 24.95 27.3 81.2 14 -2.2 28
14:00 1015 29.97 844 24.92 27.3 81.2 14 -2.1 28.2
14:05 1015 29.97 844 24.92 27.3 81.1 14 -2.2 28
14:10 1015 29.97 844 24.92 27 80.6 14 -2.7 27.1
14:15 1015 29.97 844 24.92 26.8 80.2 15 -1.8 28.7
14:20 1015 29.97 844 24.92 26.7 80.1 15 -2 28.5
14:25 1015 29.97 844 24.92 26.9 80.5 15 -2 28.4
14:30 1015 29.97 844 24.92 26.5 79.8 15 -2.3 27.8
14:35 1015 29.97 844 24.92 26.3 79.3 15 -2.3 27.9
14:40 1015 29.97 844 24.92 26.3 79.3 15 -1.9 28.5
14:45 1015 29.97 844 24.92 26.3 79.3 16 -1.5 29.3
14:50 1015 29.97 844 24.92 25.9 78.6 15 -2.3 27.9
14:55 1015 29.97 844 24.92 26 78.7 17 -0.6 30.9
15:00 1015 29.97 844 24.92 25.8 78.4 17 -1.1 30.1
15:05 1015 29.97 844 24.92 25.9 78.5 17 -0.9 30.3
15:10 1015 29.97 844 24.92 25.9 78.7 17 -1 30.2
15:15 1015 29.97 844 24.92 25.9 78.6 18 -0.2 31.6
15:20 1015 29.97 844 24.92 25.8 78.4 18 -0.1 31.8
15:25 1015 29.97 844 24.92 25.4 77.7 24 3.9 39
15:30 1015 29.97 844 24.92 23.7 74.7 23 1.7 35.1
15:35 1015 29.97 844 24.92 24.3 75.7 21 0.8 33.4
15:40 1015 29.97 844 24.92 25 77 21 1.1 34.1
15:45 1015 29.97 844 24.92 26.2 79.1 18 0.4 32.8
15:50 1015 29.97 844 24.92 26.8 80.2 18 0.5 32.9
15:55 1015 29.97 844 24.92 26.9 80.3 18 0.7 33.3
16:00 1015 29.97 844 24.92 27.3 81.2 15 -0.9 30.4
16:05 1014 29.94 844 24.92 26.8 80.2 18 0.5 32.9
16:10 1014 29.94 844 24.92 26.2 79.1 18 0.3 32.5
16:15 1014 29.94 844 24.92 25.9 78.6 17 -0.5 31.1
16:20 1014 29.94 843 24.89 26 78.9 18 0 32
16:25 1014 29.94 843 24.89 26 78.7 19 0.7 33.2
16:30 1014 29.94 843 24.89 25.7 78.2 20 1.1 33.9
16:35 1014 29.94 843 24.89 25.3 77.5 20 0.7 33.3
16:40 1014 29.94 843 24.89 25.5 78 20 0.9 33.6
16:45 1014 29.94 843 24.89 25.7 78.2 19 0.9 33.6
16:50 1014 29.94 843 24.89 25.5 78 20 1.2 34.2
16:55 1014 29.94 843 24.89 25.4 77.7 20 0.9 33.7
17:00 1013 29.91 843 24.89 25.5 77.8 20 1.1 34
17:05 1013 29.91 842 24.86 25.6 78 20 1 33.7
17:10 1013 29.91 842 24.86 26 78.8 18 0.2 32.4
17:15 1013 29.91 842 24.86 26.1 79 18 0.1 32.1
17:20 1013 29.91 842 24.86 26.1 79 17 -0.3 31.5
17:25 1013 29.91 842 24.86 26.1 78.9 18 0.3 32.5
17:30 1013 29.91 842 24.86 26.2 79.1 18 0.3 32.6
17:35 1012 29.88 842 24.86 26.2 79.2 18 -0 32
17:40 1012 29.88 841 24.83 26.1 79 19 0.9 33.5
17:45 1012 29.88 841 24.83 26.1 78.9 18 0.2 32.4
17:50 1012 29.88 841 24.83 26.1 78.9 18 -0.2 31.7
17:55 1012 29.88 841 24.83 26.2 79.1 18 0.3 32.6
18:00 1012 29.88 841 24.83 25.9 78.6 18 0.3 32.5
18:05 1012 29.88 841 24.83 25.8 78.4 17 -0.5 31.1
18:10 1012 29.88 841 24.83 25.8 78.4 18 -0.1 31.9
18:15 1012 29.88 841 24.83 25.8 78.5 18 0.1 32.1
18:20 1012 29.88 841 24.83 25.9 78.6 18 -0 31.9
18:25 1012 29.88 841 24.83 25.9 78.5 18 -0.3 31.5
18:30 1012 29.88 841 24.83 25.9 78.6 18 0 32.1
18:35 1012 29.88 841 24.83 25.9 78.5 18 -0.3 31.4
18:40 1012 29.88 841 24.83 25.8 78.5 18 0.1 32.2
18:45 1012 29.88 841 24.83 25.8 78.4 18 -0.1 31.8
18:50 1012 29.88 841 24.83 25.8 78.4 18 -0.3 31.5
18:55 1012 29.88 841 24.83 25.6 78.1 18 0 32.1
19:00 1012 29.88 841 24.83 25.3 77.5 19 0.2 32.3
19:05 1012 29.88 841 24.83 25 77.1 19 -0.1 31.8
19:10 1012 29.88 841 24.83 25.1 77.2 16 -2 28.4
19:15 1012 29.88 841 24.83 25.4 77.8 15 -2.7 27.2
19:20 1012 29.88 841 24.83 25.6 78 15 -2.5 27.4
19:25 1012 29.88 841 24.83 25.3 77.5 15 -2.7 27.2
19:30 1012 29.88 841 24.83 25.1 77.1 16 -2.6 27.3
19:35 1012 29.88 841 24.83 24.9 76.8 16 -2.1 28.3
19:40 1012 29.88 841 24.83 24.7 76.4 17 -1.7 28.9
19:45 1012 29.88 841 24.83 24.6 76.2 17 -2.1 28.2
19:50 1012 29.88 841 24.83 24.4 75.9 17 -2 28.4
19:55 1012 29.88 841 24.83 24.2 75.6 17 -1.9 28.5
20:00 1012 29.88 841 24.83 24 75.2 18 -1.6 29.1
20:05 1012 29.88 841 24.83 23.7 74.6 18 -1.5 29.4
20:10 1012 29.88 841 24.83 23.5 74.3 18 -1.9 28.5
20:15 1012 29.88 841 24.83 23.5 74.3 18 -1.6 29
20:20 1012 29.88 841 24.83 23.3 74 18 -1.8 28.8
20:25 1012 29.88 841 24.83 23.2 73.8 19 -1.6 29
20:30 1012 29.88 842 24.86 22.7 72.8 22 -0.1 31.8
20:35 1012 29.88 842 24.86 20.9 69.7 23 -0.8 30.5
20:40 1013 29.91 842 24.86 20.9 69.7 23 -1.1 30
20:45 1013 29.91 842 24.86 21.1 70 22 -1.1 30
20:50 1013 29.91 842 24.86 21.2 70.2 22 -1 30.1
20:55 1013 29.91 842 24.86 21.2 70.2 22 -0.9 30.3
21:00 1013 29.91 842 24.86 21.2 70.1 22 -1.1 29.9
21:05 1013 29.91 842 24.86 21.3 70.3 22 -1.4 29.5
21:10 1013 29.91 842 24.86 21.2 70.1 22 -1.5 29.3
21:15 1013 29.91 842 24.86 21.2 70.1 21 -1.8 28.7
21:20 1013 29.91 842 24.86 21.2 70.1 21 -1.8 28.8
21:25 1013 29.91 842 24.86 20.7 69.3 24 -0.6 31
21:30 1013 29.91 842 24.86 19.6 67.3 25 -0.9 30.4
21:35 1013 29.91 843 24.89 19.2 66.6 25 -1.2 29.9
21:40 1013 29.91 843 24.89 19.3 66.7 24 -1.7 29
21:45 1013 29.91 843 24.89 19.6 67.2 23 -2.1 28.3
21:50 1013 29.91 842 24.86 19.7 67.5 23 -1.8 28.8
21:55 1013 29.91 842 24.86 19.6 67.3 22 -2.4 27.8
22:00 1013 29.91 842 24.86 19.7 67.4 22 -2.7 27.1
22:05 1013 29.91 842 24.86 19.9 67.9 20 -3.7 25.3
22:10 1013 29.91 842 24.86 20.6 69.1 19 -3.8 25.1
22:15 1013 29.91 842 24.86 20.8 69.5 19 -3.1 26.4
22:20 1014 29.94 843 24.89 20.7 69.2 20 -2.8 26.9
22:25 1013 29.91 843 24.89 20.3 68.5 22 -2.1 28.2
22:30 1014 29.94 843 24.89 20 67.9 24 -1 30.2
22:35 1014 29.94 843 24.89 19.6 67.3 26 -0.3 31.4
22:40 1014 29.94 843 24.89 19.4 66.8 27 0.1 32.1
22:45 1014 29.94 843 24.89 19.1 66.4 28 0.3 32.5
22:50 1014 29.94 843 24.89 18.6 65.5 30 0.9 33.6
22:55 1014 29.94 844 24.92 18.2 64.7 33 1.7 35
23:00 1015 29.97 844 24.92 17.7 63.9 36 2.4 36.3
23:05 1015 29.97 844 24.92 17.4 63.4 39 3.3 38
23:10 1015 29.97 844 24.92 17.3 63.1 40 3.5 38.3
23:15 1015 29.97 844 24.92 17.2 62.9 41 3.8 38.9
23:20 1015 29.97 844 24.92 17 62.6 41 3.9 39
23:25 1015 29.97 845 24.95 16.7 62.1 43 4.1 39.3
23:30 1016 30 845 24.95 15.8 60.5 44 3.8 38.8
23:35 1016 30 845 24.95 15.3 59.6 48 4.3 39.8
23:40 1016 30 845 24.95 15.1 59.1 50 4.7 40.5
23:45 1016 30 845 24.95 14.8 58.6 53 5.4 41.7
23:50 1016 30 845 24.95 14.4 58 54 5.4 41.7
23:55 1016 30 845 24.95 14.4 57.9 56 5.7 42.2
24:00 1016 30 846 24.98 14.1 57.4 58 6 42.8